createdAt,value
2022-09-07T00:00:56.916Z,93.90
2022-09-07T00:03:23.811Z,94.20
2022-09-07T00:05:51.277Z,94.20
2022-09-07T00:08:19.320Z,94.60
2022-09-07T00:10:53.453Z,95.20
2022-09-07T00:13:20.232Z,95.20
2022-09-07T00:15:46.972Z,95.00
2022-09-07T00:18:13.729Z,94.90
2022-09-07T00:20:40.510Z,94.60
2022-09-07T00:23:07.224Z,94.70
2022-09-07T00:25:38.676Z,94.60
2022-09-07T00:28:06.590Z,94.50
2022-09-07T00:30:34.093Z,94.20
2022-09-07T00:33:00.831Z,94.10
2022-09-07T00:35:27.587Z,94.00
2022-09-07T00:37:54.358Z,93.80
2022-09-07T00:40:21.112Z,93.60
2022-09-07T00:42:48.048Z,93.60
2022-09-07T00:45:16.450Z,93.70
2022-09-07T00:47:49.233Z,94.10
2022-09-07T00:50:18.693Z,93.90
2022-09-07T00:52:47.132Z,93.80
2022-09-07T00:55:14.895Z,93.70
2022-09-07T00:57:42.916Z,93.80
2022-09-07T01:00:10.100Z,93.90
2022-09-07T01:02:37.011Z,93.70
2022-09-07T01:05:24.352Z,93.40
2022-09-07T01:07:51.150Z,93.30
2022-09-07T01:10:18.574Z,93.50
2022-09-07T01:12:45.305Z,93.90
2022-09-07T01:15:12.467Z,94.00
2022-09-07T01:17:48.045Z,94.40
2022-09-07T01:20:23.913Z,94.20
2022-09-07T01:22:53.769Z,94.10
2022-09-07T01:25:26.763Z,93.90
2022-09-07T01:28:12.450Z,93.60
2022-09-07T01:30:41.115Z,92.90
2022-09-07T01:33:10.894Z,92.60
2022-09-07T01:35:45.347Z,92.40
2022-09-07T01:38:21.301Z,92.10
2022-09-07T01:41:00.392Z,91.80
2022-09-07T01:43:36.899Z,91.40
2022-09-07T01:46:05.525Z,91.10
2022-09-07T01:48:33.668Z,90.80
2022-09-07T01:51:02.560Z,90.60
2022-09-07T01:53:35.035Z,90.30
2022-09-07T01:56:05.062Z,90.00
2022-09-07T01:58:43.867Z,89.50
2022-09-07T02:01:29.221Z,89.10
2022-09-07T02:04:16.216Z,88.80
2022-09-07T02:06:47.106Z,88.80
2022-09-07T02:09:17.374Z,88.80
2022-09-07T02:11:46.724Z,88.80
2022-09-07T02:14:32.239Z,89.20
2022-09-07T02:17:04.880Z,89.60
2022-09-07T02:19:34.981Z,90.20
2022-09-07T02:22:05.164Z,90.70
2022-09-07T02:24:35.317Z,90.90
2022-09-07T02:27:06.169Z,91.10
2022-09-07T02:29:32.917Z,91.10
2022-09-07T02:31:59.699Z,91.30
2022-09-07T02:34:26.585Z,91.50
2022-09-07T02:36:54.132Z,91.60
2022-09-07T02:39:20.886Z,91.70
2022-09-07T02:41:47.600Z,91.40
2022-09-07T02:44:21.967Z,91.00
2022-09-07T02:46:58.004Z,90.80
2022-09-07T02:49:54.352Z,90.50
2022-09-07T02:52:39.733Z,90.20
2022-09-07T02:55:16.060Z,90.10
2022-09-07T02:58:02.990Z,89.90
2022-09-07T03:00:32.016Z,89.80
2022-09-07T03:02:58.778Z,89.70
2022-09-07T03:05:25.496Z,89.50
2022-09-07T03:07:52.217Z,89.70
2022-09-07T03:10:19.058Z,90.00
2022-09-07T03:12:49.504Z,90.00
2022-09-07T03:15:18.010Z,90.70
2022-09-07T03:17:45.305Z,91.10
2022-09-07T03:20:12.415Z,91.60
2022-09-07T03:22:39.406Z,92.00
2022-09-07T03:25:06.473Z,93.20
2022-09-07T03:27:33.221Z,93.90
2022-09-07T03:30:00.334Z,93.90
2022-09-07T03:32:31.116Z,93.60
2022-09-07T03:35:00.573Z,93.50
2022-09-07T03:37:27.581Z,93.60
2022-09-07T03:39:54.716Z,93.40
2022-09-07T03:42:21.626Z,93.40
2022-09-07T03:44:51.278Z,93.20
2022-09-07T03:47:18.269Z,93.60
2022-09-07T03:49:45.073Z,93.40
2022-09-07T03:52:12.155Z,93.50
2022-09-07T03:54:39.714Z,93.10
2022-09-07T03:57:06.960Z,93.00
2022-09-07T03:59:33.765Z,93.30
2022-09-07T04:02:00.661Z,93.50
2022-09-07T04:04:27.540Z,93.50
2022-09-07T04:06:54.467Z,93.80
2022-09-07T04:09:21.224Z,94.10
2022-09-07T04:11:48.036Z,94.40
2022-09-07T04:14:14.787Z,94.80
2022-09-07T04:16:41.683Z,95.00
2022-09-07T04:19:08.410Z,94.80
2022-09-07T04:21:35.177Z,94.70
2022-09-07T04:24:02.019Z,94.40
2022-09-07T04:26:29.914Z,94.60
2022-09-07T04:28:57.029Z,94.90
2022-09-07T04:31:24.460Z,94.60
2022-09-07T04:33:51.795Z,94.40
2022-09-07T04:36:19.463Z,94.50
2022-09-07T04:38:46.719Z,95.00
2022-09-07T04:41:14.650Z,94.70
2022-09-07T04:43:43.346Z,94.80
2022-09-07T04:46:19.676Z,95.30
2022-09-07T04:48:50.231Z,95.20
2022-09-07T04:51:17.351Z,95.00
2022-09-07T04:53:44.142Z,95.50
2022-09-07T04:56:15.043Z,95.60
2022-09-07T04:58:43.745Z,95.60
2022-09-07T05:01:10.565Z,95.90
2022-09-07T05:03:38.364Z,96.30
2022-09-07T05:06:06.096Z,96.10
2022-09-07T05:08:39.703Z,96.00
2022-09-07T05:11:06.497Z,96.00
2022-09-07T05:13:33.296Z,95.80
2022-09-07T05:16:01.737Z,95.70
2022-09-07T05:18:28.570Z,95.20
2022-09-07T05:20:55.345Z,95.00
2022-09-07T05:23:22.967Z,95.30
2022-09-07T05:25:49.750Z,95.10
2022-09-07T05:28:19.473Z,95.50
2022-09-07T05:36:21.454Z,95.90
2022-09-07T05:38:48.201Z,95.90
2022-09-07T05:41:19.347Z,95.90
2022-09-07T05:46:32.993Z,95.90
2022-09-07T05:49:00.776Z,96.00
2022-09-07T05:51:27.547Z,96.20
2022-09-07T05:53:56.335Z,95.90
2022-09-07T05:56:23.132Z,96.20
2022-09-07T05:58:50.034Z,96.30
2022-09-07T06:01:17.482Z,96.20
2022-09-07T06:03:44.729Z,96.00
2022-09-07T06:06:12.958Z,96.00
2022-09-07T06:08:43.340Z,96.40
2022-09-07T06:11:13.193Z,96.40
2022-09-07T06:13:42.927Z,96.20
2022-09-07T06:16:11.321Z,96.30
2022-09-07T06:18:42.433Z,96.20
2022-09-07T06:21:10.513Z,96.10
2022-09-07T06:23:37.932Z,96.00
2022-09-07T06:26:05.170Z,95.90
2022-09-07T06:28:34.671Z,95.90
2022-09-07T06:31:06.072Z,95.80
2022-09-07T06:33:33.173Z,95.80
2022-09-07T06:36:07.680Z,95.70
2022-09-07T06:38:35.359Z,95.60
2022-09-07T06:43:50.211Z,95.30
2022-09-07T06:49:04.541Z,95.10
2022-09-07T06:51:32.202Z,95.00
2022-09-07T06:56:48.607Z,94.90
2022-09-07T06:59:15.337Z,94.80
2022-09-07T07:01:42.094Z,94.70
2022-09-07T07:04:09.001Z,94.70
2022-09-07T07:06:36.650Z,94.70
2022-09-07T07:09:04.326Z,94.60
2022-09-07T07:11:31.361Z,94.40
2022-09-07T07:13:58.282Z,94.30
2022-09-07T07:16:25.064Z,94.00
2022-09-07T07:18:55.314Z,94.10
2022-09-07T07:21:22.136Z,93.80
2022-09-07T07:23:52.565Z,93.40
2022-09-07T07:26:23.921Z,92.70
2022-09-07T07:29:06.847Z,92.20
2022-09-07T07:31:35.062Z,92.10
2022-09-07T07:34:03.735Z,91.90
2022-09-07T07:36:30.932Z,92.20
2022-09-07T07:44:20.480Z,92.10
2022-09-07T07:46:48.216Z,91.30
2022-09-07T07:49:14.940Z,91.60
2022-09-07T07:54:28.372Z,90.60
2022-09-07T07:56:55.107Z,90.60
2022-09-07T07:59:21.794Z,90.10
2022-09-07T08:01:48.632Z,89.10
2022-09-07T08:04:15.652Z,87.90
2022-09-07T08:06:42.663Z,86.20
2022-09-07T08:09:09.400Z,85.90
2022-09-07T08:11:36.156Z,86.10
2022-09-07T08:14:04.879Z,85.00
2022-09-07T08:16:31.758Z,86.60
2022-09-07T08:18:58.980Z,85.60
2022-09-07T08:21:25.641Z,85.40
2022-09-07T08:23:52.326Z,83.70
2022-09-07T08:26:19.090Z,83.80
2022-09-07T08:28:46.341Z,83.30
2022-09-07T08:31:14.370Z,84.00
2022-09-07T08:33:41.227Z,84.30
2022-09-07T08:36:09.229Z,83.40
2022-09-07T08:38:36.675Z,84.60
2022-09-07T08:41:19.071Z,83.70
2022-09-07T08:44:14.872Z,80.70
2022-09-07T08:47:00.557Z,79.50
2022-09-07T08:49:37.500Z,78.20
2022-09-07T08:52:08.866Z,77.60
2022-09-07T08:54:36.116Z,77.00
2022-09-07T08:59:55.806Z,76.40
2022-09-07T09:02:32.691Z,77.40
2022-09-07T09:05:17.601Z,77.50
2022-09-07T09:08:02.653Z,77.40
2022-09-07T09:10:36.680Z,77.10
2022-09-07T09:13:06.939Z,76.40
2022-09-07T09:15:43.036Z,76.90
2022-09-07T09:18:23.997Z,77.30
2022-09-07T09:20:53.627Z,77.90
2022-09-07T09:23:22.038Z,77.90
2022-09-07T09:25:55.773Z,79.30
2022-09-07T09:28:22.938Z,81.90
2022-09-07T09:30:50.453Z,82.20
2022-09-07T09:33:19.454Z,81.70
2022-09-07T09:35:49.953Z,82.70
2022-09-07T09:38:32.228Z,81.70
2022-09-07T09:41:19.265Z,82.50
2022-09-07T09:43:53.865Z,83.30
2022-09-07T09:46:34.249Z,83.20
2022-09-07T09:49:03.479Z,81.40
2022-09-07T09:54:29.354Z,80.30
2022-09-07T09:56:56.719Z,78.30
2022-09-07T10:05:41.138Z,76.10
2022-09-07T10:08:16.644Z,72.00
2022-09-07T10:10:55.260Z,71.60
2022-09-07T10:13:23.568Z,71.70
2022-09-07T10:15:51.204Z,70.30
2022-09-07T10:18:21.322Z,69.90
2022-09-07T10:20:48.902Z,69.90
2022-09-07T10:23:23.415Z,71.20
2022-09-07T10:25:50.188Z,70.50
2022-09-07T10:28:21.441Z,70.30
2022-09-07T10:30:54.318Z,70.10
2022-09-07T10:33:34.463Z,66.70
2022-09-07T10:36:27.303Z,66.70
2022-09-07T10:38:57.860Z,66.60
2022-09-07T10:41:31.083Z,66.60
2022-09-07T10:43:58.048Z,62.90
2022-09-07T10:49:19.732Z,64.10
2022-09-07T10:52:04.048Z,63.30
2022-09-07T10:54:53.442Z,64.40
2022-09-07T10:57:35.244Z,66.30
2022-09-07T11:00:13.046Z,65.50
2022-09-07T11:05:57.157Z,61.50
2022-09-07T11:08:27.307Z,61.20
2022-09-07T11:11:02.530Z,58.40
2022-09-07T11:13:31.646Z,58.90
2022-09-07T11:16:00.051Z,57.90
2022-09-07T11:18:30.300Z,57.70
2022-09-07T11:20:59.032Z,58.80
2022-09-07T11:23:31.689Z,59.30
2022-09-07T11:26:04.419Z,56.40
2022-09-07T11:29:29.289Z,56.50
2022-09-07T11:31:41.527Z,56.90
2022-09-07T11:34:25.438Z,55.60
2022-09-07T11:37:13.663Z,56.30
2022-09-07T11:39:55.453Z,57.20
2022-09-07T11:45:32.742Z,55.80
2022-09-07T11:48:01.355Z,54.70
2022-09-07T11:50:29.963Z,56.10
2022-09-07T11:53:02.817Z,57.10
2022-09-07T11:55:30.195Z,58.20
2022-09-07T11:58:15.594Z,58.90
2022-09-07T12:00:48.268Z,59.30
2022-09-07T12:03:14.967Z,59.00
2022-09-07T12:06:00.311Z,60.40
2022-09-07T12:08:45.460Z,59.80
2022-09-07T12:11:23.428Z,59.40
2022-09-07T12:13:53.412Z,59.20
2022-09-07T12:16:43.178Z,58.80
2022-09-07T12:19:10.138Z,59.80
2022-09-07T12:21:42.277Z,60.30
2022-09-07T12:24:27.500Z,59.80
2022-09-07T12:26:54.398Z,58.90
2022-09-07T12:29:22.673Z,59.70
2022-09-07T12:31:59.661Z,59.30
2022-09-07T12:34:34.223Z,59.40
2022-09-07T12:37:12.396Z,60.10
2022-09-07T12:39:43.902Z,61.10
2022-09-07T12:42:39.218Z,58.60
2022-09-07T12:45:24.535Z,58.70
2022-09-07T12:47:58.243Z,58.60
2022-09-07T12:50:28.474Z,58.40
2022-09-07T12:53:20.406Z,57.70
2022-09-07T12:56:16.752Z,58.40
2022-09-07T12:58:46.546Z,57.30
2022-09-07T13:01:16.349Z,56.40
2022-09-07T13:04:05.920Z,55.70
2022-09-07T13:09:28.653Z,53.80
2022-09-07T13:11:55.535Z,53.70
2022-09-07T13:14:25.435Z,55.70
2022-09-07T13:17:18.226Z,56.80
2022-09-07T13:19:50.766Z,56.80
2022-09-07T13:22:32.787Z,55.50
2022-09-07T13:25:00.935Z,55.00
2022-09-07T13:27:33.787Z,53.30
2022-09-07T13:30:03.139Z,52.70
2022-09-07T13:35:21.567Z,50.70
2022-09-07T13:37:52.974Z,51.80
2022-09-07T13:40:24.936Z,51.00
2022-09-07T13:42:52.515Z,53.20
2022-09-07T13:45:46.884Z,53.90
2022-09-07T13:48:13.686Z,52.90
2022-09-07T13:50:58.987Z,53.60
2022-09-07T13:53:44.457Z,53.80
2022-09-07T13:56:11.109Z,54.60
2022-09-07T13:58:39.964Z,55.50
2022-09-07T14:01:18.134Z,55.40
2022-09-07T14:03:53.398Z,56.50
2022-09-07T14:06:23.033Z,56.20
2022-09-07T14:08:51.507Z,57.10
2022-09-07T14:11:23.345Z,57.30
2022-09-07T14:14:09.095Z,56.30
2022-09-07T14:16:35.954Z,57.00
2022-09-07T14:19:09.130Z,57.00
2022-09-07T14:21:35.869Z,57.70
2022-09-07T14:24:03.503Z,57.60
2022-09-07T14:26:30.214Z,57.30
2022-09-07T14:28:56.964Z,58.40
2022-09-07T14:31:25.017Z,57.60
2022-09-07T14:33:55.859Z,57.20
2022-09-07T14:36:44.264Z,55.80
2022-09-07T14:39:13.841Z,55.20
2022-09-07T14:41:42.140Z,55.30
2022-09-07T14:44:27.438Z,54.40
2022-09-07T14:46:56.825Z,54.60
2022-09-07T14:49:24.141Z,55.50
2022-09-07T14:51:51.966Z,56.70
2022-09-07T14:54:20.792Z,57.30
2022-09-07T14:57:05.248Z,57.90
2022-09-07T14:59:31.920Z,58.30
2022-09-07T15:02:34.449Z,59.00
2022-09-07T15:05:22.570Z,58.90
2022-09-07T15:07:54.315Z,59.40
2022-09-07T15:10:20.991Z,59.40
2022-09-07T15:12:48.742Z,59.80
2022-09-07T15:15:18.436Z,59.90
2022-09-07T15:17:45.484Z,60.30
2022-09-07T15:20:31.113Z,60.20
2022-09-07T15:22:58.162Z,60.60
2022-09-07T15:25:24.904Z,60.60
2022-09-07T15:27:51.685Z,61.10
2022-09-07T15:30:18.385Z,60.90
2022-09-07T15:32:45.137Z,61.20
2022-09-07T15:35:11.887Z,61.50
2022-09-07T15:40:26.319Z,61.60
2022-09-07T15:43:00.735Z,61.50
2022-09-07T15:45:27.843Z,60.80
2022-09-07T15:47:54.737Z,61.40
2022-09-07T15:50:23.141Z,61.30
2022-09-07T15:52:50.205Z,61.30
2022-09-07T15:55:17.628Z,61.70
2022-09-07T15:58:05.118Z,61.20
2022-09-07T16:00:31.784Z,61.70
2022-09-07T16:03:07.572Z,61.90
2022-09-07T16:05:34.754Z,62.40
2022-09-07T16:11:05.283Z,63.30
2022-09-07T16:13:33.209Z,63.20
2022-09-07T16:16:00.378Z,63.50
2022-09-07T16:18:31.148Z,64.60
2022-09-07T16:21:03.734Z,64.50
2022-09-07T16:23:30.462Z,65.00
2022-09-07T16:25:58.141Z,65.20
2022-09-07T16:28:25.441Z,65.40
2022-09-07T16:30:52.127Z,66.00
2022-09-07T16:33:18.851Z,66.70
2022-09-07T16:35:55.890Z,66.70
2022-09-07T16:41:13.297Z,67.20
2022-09-07T16:43:39.972Z,67.10
2022-09-07T16:46:07.750Z,67.50
2022-09-07T16:48:35.805Z,67.70
2022-09-07T16:51:03.069Z,67.50
2022-09-07T16:53:30.656Z,68.40
2022-09-07T16:56:27.034Z,69.00
2022-09-07T16:58:55.912Z,69.20
2022-09-07T17:01:24.488Z,69.60
2022-09-07T17:03:51.599Z,70.10
2022-09-07T17:06:19.282Z,69.40
2022-09-07T17:08:46.091Z,69.80
2022-09-07T17:11:14.274Z,70.10
2022-09-07T17:13:41.766Z,69.90
2022-09-07T17:16:12.513Z,70.10
2022-09-07T17:21:34.709Z,70.00
2022-09-07T17:24:04.227Z,71.60
2022-09-07T17:26:31.597Z,70.50
2022-09-07T17:29:00.346Z,70.40
2022-09-07T17:34:23.733Z,70.40
2022-09-07T17:36:51.370Z,70.30
2022-09-07T17:39:19.381Z,69.80
2022-09-07T17:41:52.567Z,70.50
2022-09-07T17:44:19.927Z,70.50
2022-09-07T17:46:46.606Z,70.30
2022-09-07T17:49:16.472Z,70.40
2022-09-07T17:51:43.973Z,70.10
2022-09-07T17:54:11.964Z,70.00
2022-09-07T17:56:41.020Z,70.00
2022-09-07T18:01:55.261Z,70.80
2022-09-07T18:04:22.921Z,71.10
2022-09-07T18:06:49.828Z,71.50
2022-09-07T18:09:16.540Z,72.00
2022-09-07T18:11:48.068Z,72.40
2022-09-07T18:14:15.551Z,72.70
2022-09-07T18:16:43.457Z,72.60
2022-09-07T18:19:11.121Z,72.40
2022-09-07T18:21:40.989Z,72.60
2022-09-07T18:24:11.786Z,72.90
2022-09-07T18:26:40.095Z,72.60
2022-09-07T18:29:15.909Z,72.80
2022-09-07T18:31:46.021Z,73.60
2022-09-07T18:34:12.928Z,72.60
2022-09-07T18:36:43.694Z,74.90
2022-09-07T18:39:10.708Z,76.00
2022-09-07T18:41:40.819Z,76.70
2022-09-07T18:45:26.985Z,76.80
2022-09-07T18:46:54.798Z,76.50
2022-09-07T18:49:21.508Z,77.00
2022-09-07T18:54:35.049Z,77.40
2022-09-07T18:57:01.767Z,78.60
2022-09-07T18:59:29.850Z,79.60
2022-09-07T19:02:01.340Z,73.70
2022-09-07T19:07:17.887Z,70.70
2022-09-07T19:09:44.605Z,68.50
2022-09-07T19:12:11.306Z,68.50
2022-09-07T19:14:38.081Z,68.30
2022-09-07T19:17:04.830Z,68.00
2022-09-07T19:19:32.946Z,68.20
2022-09-07T19:22:01.610Z,67.70
2022-09-07T19:24:28.634Z,68.20
2022-09-07T19:27:00.275Z,67.40
2022-09-07T19:29:28.127Z,68.00
2022-09-07T19:32:07.816Z,68.10
2022-09-07T19:34:36.165Z,68.80
2022-09-07T19:37:03.804Z,68.00
2022-09-07T19:39:30.661Z,68.40
2022-09-07T19:41:58.662Z,68.70
2022-09-07T19:44:25.700Z,68.70
2022-09-07T19:46:52.508Z,69.20
2022-09-07T19:49:19.297Z,69.70
2022-09-07T19:51:46.052Z,70.90
2022-09-07T19:54:13.723Z,71.30
2022-09-07T19:56:42.433Z,70.00
2022-09-07T19:59:09.222Z,70.40
2022-09-07T20:01:36.302Z,72.30
2022-09-07T20:04:09.012Z,73.80
2022-09-07T20:06:37.528Z,76.00
2022-09-07T20:09:04.909Z,78.90
2022-09-07T20:11:31.920Z,80.90
2022-09-07T20:14:01.571Z,82.80
2022-09-07T20:16:28.784Z,85.50
2022-09-07T20:19:03.172Z,86.70
2022-09-07T20:21:30.027Z,89.40
2022-09-07T20:23:56.734Z,92.20
2022-09-07T20:26:26.492Z,93.30
2022-09-07T20:29:05.841Z,93.10
2022-09-07T20:31:40.915Z,92.90
2022-09-07T20:34:10.807Z,93.00
2022-09-07T20:36:37.669Z,93.10
2022-09-07T20:39:04.705Z,93.00
2022-09-07T20:41:32.455Z,93.60
2022-09-07T20:44:00.799Z,93.40
2022-09-07T20:46:28.967Z,93.30
2022-09-07T20:48:56.373Z,93.70
2022-09-07T20:51:23.360Z,95.80
2022-09-07T20:53:50.534Z,96.50
2022-09-07T20:56:21.379Z,97.10
2022-09-07T20:58:48.855Z,96.60
2022-09-07T21:01:17.951Z,96.50
2022-09-07T21:03:49.416Z,96.90
2022-09-07T21:06:16.855Z,97.70
2022-09-07T21:08:44.256Z,98.10
2022-09-07T21:11:12.444Z,98.00
2022-09-07T21:13:39.573Z,97.50
2022-09-07T21:16:07.885Z,97.00
2022-09-07T21:18:34.917Z,96.60
2022-09-07T21:21:19.184Z,96.40
2022-09-07T21:23:46.912Z,97.00
2022-09-07T21:26:13.619Z,96.90
2022-09-07T21:28:40.343Z,96.60
2022-09-07T21:31:08.230Z,96.50
2022-09-07T21:33:35.899Z,97.30
2022-09-07T21:36:03.927Z,97.40
2022-09-07T21:38:30.667Z,97.70
2022-09-07T21:40:57.637Z,98.00
2022-09-07T21:43:24.336Z,98.20
2022-09-07T21:45:51.047Z,98.40
2022-09-07T21:48:17.708Z,98.50
2022-09-07T21:50:46.789Z,98.20
2022-09-07T21:53:13.600Z,97.90
2022-09-07T21:55:40.253Z,97.60
2022-09-07T21:58:06.935Z,97.60
2022-09-07T22:00:33.685Z,96.90
2022-09-07T22:03:00.360Z,97.10
2022-09-07T22:05:27.205Z,96.90
2022-09-07T22:07:53.944Z,96.90
2022-09-07T22:10:20.632Z,96.60
2022-09-07T22:12:47.309Z,96.40
2022-09-07T22:15:14.056Z,96.30
2022-09-07T22:17:44.484Z,96.20
2022-09-07T22:20:13.130Z,96.10
2022-09-07T22:22:39.874Z,96.60
2022-09-07T22:25:06.716Z,96.40
2022-09-07T22:27:33.536Z,96.20
2022-09-07T22:30:00.374Z,96.10
2022-09-07T22:32:27.706Z,96.00
2022-09-07T22:34:54.441Z,96.00
2022-09-07T22:37:21.398Z,96.00
2022-09-07T22:39:48.130Z,96.00
2022-09-07T22:42:14.911Z,96.00
2022-09-07T22:44:41.658Z,96.10
2022-09-07T22:47:09.387Z,96.10
2022-09-07T22:49:36.140Z,96.90
2022-09-07T22:52:03.247Z,96.80
2022-09-07T22:54:29.897Z,96.80
2022-09-07T22:56:56.645Z,97.50
2022-09-07T22:59:23.448Z,97.90
2022-09-07T23:01:50.100Z,98.30
2022-09-07T23:04:16.931Z,98.30
2022-09-07T23:06:43.911Z,98.20
2022-09-07T23:09:11.788Z,98.00
2022-09-07T23:11:38.677Z,97.70
2022-09-07T23:14:07.109Z,97.70
2022-09-07T23:16:34.087Z,97.90
2022-09-07T23:19:01.077Z,97.30
2022-09-07T23:21:28.016Z,97.20
2022-09-07T23:23:56.832Z,97.00
2022-09-07T23:26:24.081Z,97.00
2022-09-07T23:28:54.765Z,97.00
2022-09-07T23:31:21.906Z,96.80
2022-09-07T23:33:48.942Z,96.80
2022-09-07T23:36:16.422Z,96.70
2022-09-07T23:38:43.409Z,96.80
2022-09-07T23:41:10.058Z,96.70
2022-09-07T23:43:36.935Z,96.60
2022-09-07T23:46:03.643Z,96.80
2022-09-07T23:48:30.503Z,96.90
2022-09-07T23:50:57.332Z,96.80
2022-09-07T23:53:24.493Z,96.70
2022-09-07T23:55:51.897Z,96.90
2022-09-07T23:58:19.221Z,96.70
